createdAt,value
2023-01-05T00:01:49.527Z,12.90
2023-01-05T00:04:17.075Z,13.00
2023-01-05T00:06:44.859Z,13.00
2023-01-05T00:09:14.224Z,13.00
2023-01-05T00:12:00.373Z,13.00
2023-01-05T00:14:49.121Z,13.10
2023-01-05T00:17:40.674Z,13.00
2023-01-05T00:20:32.626Z,13.10
2023-01-05T00:23:00.567Z,13.10
2023-01-05T00:25:30.904Z,13.00
2023-01-05T00:27:58.863Z,13.10
2023-01-05T00:30:33.199Z,13.10
2023-01-05T00:33:01.707Z,13.10
2023-01-05T00:35:31.245Z,13.20
2023-01-05T00:37:58.760Z,13.20
2023-01-05T00:40:26.122Z,13.20
2023-01-05T00:42:53.602Z,13.20
2023-01-05T00:45:22.277Z,13.20
2023-01-05T00:47:52.186Z,13.20
2023-01-05T00:53:02.089Z,13.20
2023-01-05T00:55:29.556Z,13.30
2023-01-05T00:57:57.058Z,13.30
2023-01-05T01:00:24.577Z,13.30
2023-01-05T01:02:55.443Z,13.30
2023-01-05T01:05:23.363Z,13.30
2023-01-05T01:07:51.006Z,13.20
2023-01-05T01:10:18.562Z,13.20
2023-01-05T01:12:45.978Z,13.20
2023-01-05T01:15:13.460Z,13.20
2023-01-05T01:17:42.850Z,13.20
2023-01-05T01:20:10.551Z,13.20
2023-01-05T01:22:38.203Z,13.20
2023-01-05T01:25:07.194Z,13.20
2023-01-05T01:27:34.626Z,13.20
2023-01-05T01:30:01.993Z,13.20
2023-01-05T01:32:29.327Z,13.10
2023-01-05T01:34:56.776Z,13.10
2023-01-05T01:37:24.249Z,13.10
2023-01-05T01:39:54.967Z,13.10
2023-01-05T01:42:23.055Z,13.10
2023-01-05T01:44:54.731Z,13.10
2023-01-05T01:47:43.989Z,13.20
2023-01-05T01:50:24.644Z,13.10
2023-01-05T01:52:58.852Z,13.00
2023-01-05T01:55:28.331Z,13.10
2023-01-05T01:57:56.100Z,13.00
2023-01-05T02:00:23.697Z,13.00
2023-01-05T02:02:54.929Z,12.90
2023-01-05T02:05:29.767Z,12.90
2023-01-05T02:07:57.836Z,12.90
2023-01-05T02:10:43.802Z,12.90
2023-01-05T02:13:31.955Z,13.00
2023-01-05T02:16:03.379Z,12.90
2023-01-05T02:19:04.382Z,12.90
2023-01-05T02:21:54.738Z,12.90
2023-01-05T02:24:44.865Z,12.80
2023-01-05T02:27:28.721Z,12.80
2023-01-05T02:30:27.163Z,12.90
2023-01-05T02:33:11.389Z,12.80
2023-01-05T02:35:57.729Z,12.80
2023-01-05T02:38:52.582Z,12.80
2023-01-05T02:41:29.600Z,12.70
2023-01-05T02:43:58.667Z,12.70
2023-01-05T02:46:26.667Z,12.70
2023-01-05T02:48:58.530Z,12.60
2023-01-05T02:51:35.384Z,12.60
2023-01-05T02:54:15.764Z,12.60
2023-01-05T02:57:05.189Z,12.60
2023-01-05T02:59:47.799Z,12.60
2023-01-05T03:02:26.520Z,12.70
2023-01-05T03:04:58.494Z,12.70
2023-01-05T03:07:31.455Z,12.70
2023-01-05T03:10:19.095Z,12.70
2023-01-05T03:13:06.298Z,12.60
2023-01-05T03:15:35.287Z,12.60
2023-01-05T03:18:09.463Z,12.60
2023-01-05T03:20:44.349Z,12.60
2023-01-05T03:23:32.502Z,12.60
2023-01-05T03:26:18.315Z,12.60
2023-01-05T03:29:26.503Z,12.60
2023-01-05T03:32:33.107Z,12.60
2023-01-05T03:35:31.463Z,12.60
2023-01-05T03:38:18.071Z,12.60
2023-01-05T03:40:50.099Z,12.60
2023-01-05T03:43:19.278Z,12.70
2023-01-05T03:45:57.894Z,12.60
2023-01-05T03:48:29.237Z,12.60
2023-01-05T03:50:56.860Z,12.70
2023-01-05T03:53:26.075Z,12.70
2023-01-05T03:55:54.235Z,12.80
2023-01-05T03:58:23.805Z,12.80
2023-01-05T04:00:52.622Z,12.70
2023-01-05T04:03:27.756Z,12.80
2023-01-05T04:05:59.009Z,12.70
2023-01-05T04:08:29.268Z,12.70
2023-01-05T04:10:58.340Z,12.70
2023-01-05T04:13:26.176Z,12.70
2023-01-05T04:15:56.350Z,12.70
2023-01-05T04:18:24.164Z,12.70
2023-01-05T04:20:52.684Z,12.70
2023-01-05T04:23:20.128Z,12.60
2023-01-05T04:25:48.403Z,12.70
2023-01-05T04:28:21.144Z,12.70
2023-01-05T04:30:54.219Z,12.60
2023-01-05T04:33:24.952Z,12.60
2023-01-05T04:35:53.448Z,12.60
2023-01-05T04:38:21.090Z,12.60
2023-01-05T04:40:51.411Z,12.60
2023-01-05T04:43:20.480Z,12.60
2023-01-05T04:45:50.003Z,12.60
2023-01-05T04:48:18.472Z,12.60
2023-01-05T04:50:46.018Z,12.60
2023-01-05T04:53:14.695Z,12.60
2023-01-05T04:55:45.844Z,12.60
2023-01-05T04:58:13.257Z,12.50
2023-01-05T05:00:41.901Z,12.50
2023-01-05T05:03:10.143Z,12.60
2023-01-05T05:05:38.027Z,12.60
2023-01-05T05:08:05.971Z,12.70
2023-01-05T05:10:35.552Z,12.60
2023-01-05T05:13:03.043Z,12.60
2023-01-05T05:15:31.253Z,12.60
2023-01-05T05:18:04.164Z,12.60
2023-01-05T05:20:34.625Z,12.60
2023-01-05T05:23:02.025Z,12.60
2023-01-05T05:25:32.687Z,12.60
2023-01-05T05:28:00.396Z,12.60
2023-01-05T05:30:27.761Z,12.60
2023-01-05T05:32:55.100Z,12.60
2023-01-05T05:35:22.449Z,12.60
2023-01-05T05:37:56.016Z,12.60
2023-01-05T05:40:24.493Z,12.60
2023-01-05T05:42:51.981Z,12.60
2023-01-05T05:45:19.354Z,12.60
2023-01-05T05:47:46.667Z,12.60
2023-01-05T05:50:14.086Z,12.70
2023-01-05T05:52:41.633Z,12.70
2023-01-05T05:55:09.450Z,12.70
2023-01-05T05:57:36.868Z,12.60
2023-01-05T06:00:05.191Z,12.60
2023-01-05T06:02:40.230Z,12.60
2023-01-05T06:05:08.239Z,12.60
2023-01-05T06:07:35.598Z,12.60
2023-01-05T06:10:03.133Z,12.60
2023-01-05T06:12:30.593Z,12.60
2023-01-05T06:14:58.032Z,12.50
2023-01-05T06:17:25.365Z,12.60
2023-01-05T06:19:52.722Z,12.60
2023-01-05T06:22:20.071Z,12.70
2023-01-05T06:24:47.498Z,12.60
2023-01-05T06:27:14.814Z,12.60
2023-01-05T06:29:42.144Z,12.60
2023-01-05T06:32:09.544Z,12.50
2023-01-05T06:34:36.917Z,12.60
2023-01-05T06:37:06.561Z,12.60
2023-01-05T06:39:33.987Z,12.50
2023-01-05T06:42:01.335Z,12.50
2023-01-05T06:44:28.729Z,12.50
2023-01-05T06:46:56.125Z,12.50
2023-01-05T06:49:23.628Z,12.50
2023-01-05T06:51:50.945Z,12.50
2023-01-05T06:54:18.370Z,12.50
2023-01-05T06:56:45.667Z,12.50
2023-01-05T06:59:13.433Z,12.50
2023-01-05T07:01:40.821Z,12.50
2023-01-05T07:04:08.248Z,12.60
2023-01-05T07:06:36.403Z,12.60
2023-01-05T07:09:04.019Z,12.60
2023-01-05T07:11:31.358Z,12.60
2023-01-05T07:13:58.700Z,12.60
2023-01-05T07:16:26.115Z,12.60
2023-01-05T07:18:53.543Z,12.60
2023-01-05T07:21:20.827Z,12.60
2023-01-05T07:23:48.230Z,12.60
2023-01-05T07:26:15.613Z,12.60
2023-01-05T07:28:43.162Z,12.70
2023-01-05T07:31:10.524Z,12.60
2023-01-05T07:33:40.222Z,12.60
2023-01-05T07:36:08.354Z,12.60
2023-01-05T07:38:35.718Z,12.60
2023-01-05T07:41:03.879Z,12.50
2023-01-05T07:43:31.324Z,12.50
2023-01-05T07:46:02.705Z,12.50
2023-01-05T07:48:30.330Z,12.50
2023-01-05T07:51:05.619Z,12.50
2023-01-05T07:53:43.945Z,12.50
2023-01-05T07:56:14.108Z,12.50
2023-01-05T07:58:42.662Z,12.50
2023-01-05T08:01:13.006Z,12.50
2023-01-05T08:03:41.359Z,12.50
2023-01-05T08:06:11.898Z,12.50
2023-01-05T08:08:39.514Z,12.40
2023-01-05T08:11:08.282Z,12.50
2023-01-05T08:13:54.497Z,12.50
2023-01-05T08:16:22.550Z,12.50
2023-01-05T08:18:49.884Z,12.50
2023-01-05T08:24:00.003Z,12.50
2023-01-05T08:26:27.715Z,12.40
2023-01-05T08:28:55.186Z,12.50
2023-01-05T08:31:28.397Z,12.40
2023-01-05T08:34:00.495Z,12.40
2023-01-05T08:36:28.101Z,12.50
2023-01-05T08:38:55.836Z,12.50
2023-01-05T08:41:28.627Z,12.50
2023-01-05T08:43:58.271Z,12.50
2023-01-05T08:46:28.333Z,12.50
2023-01-05T08:48:58.216Z,12.50
2023-01-05T08:51:25.800Z,12.50
2023-01-05T08:53:53.418Z,12.50
2023-01-05T08:56:21.884Z,12.50
2023-01-05T08:58:49.241Z,12.50
2023-01-05T09:01:19.514Z,12.60
2023-01-05T09:03:47.004Z,12.60
2023-01-05T09:06:14.813Z,12.60
2023-01-05T09:08:43.758Z,12.50
2023-01-05T09:11:23.339Z,12.60
2023-01-05T09:13:53.545Z,12.60
2023-01-05T09:19:12.151Z,12.70
2023-01-05T09:21:39.827Z,12.80
2023-01-05T09:24:08.192Z,12.80
2023-01-05T09:26:35.613Z,12.80
2023-01-05T09:29:03.024Z,12.80
2023-01-05T09:31:30.765Z,12.80
2023-01-05T09:33:59.099Z,12.90
2023-01-05T09:36:26.578Z,12.80
2023-01-05T09:38:54.699Z,12.80
2023-01-05T09:41:25.219Z,12.80
2023-01-05T09:43:56.654Z,12.90
2023-01-05T09:46:29.840Z,13.00
2023-01-05T09:49:01.000Z,13.00
2023-01-05T09:51:29.658Z,13.00
2023-01-05T09:53:57.731Z,13.10
2023-01-05T09:59:37.517Z,13.20
2023-01-05T10:02:27.520Z,13.20
2023-01-05T10:04:56.691Z,13.30
2023-01-05T10:07:31.996Z,13.30
2023-01-05T10:10:05.691Z,13.30
2023-01-05T10:12:58.800Z,13.30
2023-01-05T10:15:28.016Z,13.30
2023-01-05T10:17:55.380Z,13.40
2023-01-05T10:21:12.791Z,13.30
2023-01-05T10:24:10.543Z,13.40
2023-01-05T10:27:24.553Z,13.40
2023-01-05T10:30:38.598Z,13.40
2023-01-05T10:33:39.024Z,13.40
2023-01-05T10:36:49.282Z,13.50
2023-01-05T10:39:34.825Z,13.50
2023-01-05T10:42:11.478Z,13.60
2023-01-05T10:44:57.581Z,13.60
2023-01-05T10:50:32.768Z,13.80
2023-01-05T10:53:05.846Z,13.90
2023-01-05T10:55:37.839Z,14.00
2023-01-05T10:58:05.189Z,14.10
2023-01-05T11:00:42.839Z,14.20
2023-01-05T11:03:16.247Z,14.20
2023-01-05T11:05:46.833Z,14.20
2023-01-05T11:08:29.550Z,14.20
2023-01-05T11:11:05.651Z,14.10
2023-01-05T11:13:36.254Z,14.20
2023-01-05T11:16:28.242Z,14.40
2023-01-05T11:18:58.735Z,14.70
2023-01-05T11:21:47.964Z,14.80
2023-01-05T11:24:36.339Z,14.90
2023-01-05T11:27:19.569Z,15.20
2023-01-05T11:30:09.464Z,15.20
2023-01-05T11:32:36.992Z,15.30
2023-01-05T11:37:46.460Z,15.40
2023-01-05T11:40:19.441Z,15.30
2023-01-05T11:42:47.295Z,15.30
2023-01-05T11:45:21.859Z,15.30
2023-01-05T11:47:53.389Z,15.20
2023-01-05T11:50:31.342Z,15.20
2023-01-05T11:53:01.480Z,15.20
2023-01-05T11:55:40.135Z,15.20
2023-01-05T11:58:27.884Z,15.20
2023-01-05T12:01:13.962Z,15.10
2023-01-05T12:04:23.164Z,15.10
2023-01-05T12:07:07.421Z,15.10
2023-01-05T12:09:45.243Z,14.90
2023-01-05T12:12:37.536Z,14.90
2023-01-05T12:15:30.865Z,14.80
2023-01-05T12:18:22.145Z,14.80
2023-01-05T12:20:55.628Z,14.70
2023-01-05T12:23:41.585Z,14.70
2023-01-05T12:26:21.949Z,14.70
2023-01-05T12:35:42.764Z,14.60
2023-01-05T12:38:28.326Z,14.60
2023-01-05T12:41:34.440Z,14.50
2023-01-05T12:44:22.263Z,14.30
2023-01-05T12:47:22.173Z,14.20
2023-01-05T12:50:00.620Z,14.20
2023-01-05T12:53:10.330Z,14.20
2023-01-05T12:55:46.151Z,14.10
2023-01-05T12:58:37.872Z,13.90
2023-01-05T13:01:11.357Z,13.70
2023-01-05T13:04:17.788Z,13.60
2023-01-05T13:06:50.510Z,13.50
2023-01-05T13:09:22.882Z,13.40
2023-01-05T13:11:56.858Z,13.50
2023-01-05T13:14:29.949Z,13.50
2023-01-05T13:17:15.342Z,13.60
2023-01-05T13:19:48.514Z,13.60
2023-01-05T13:22:29.561Z,13.60
2023-01-05T13:25:12.257Z,13.70
2023-01-05T13:27:39.664Z,13.80
2023-01-05T13:30:08.485Z,13.90
2023-01-05T13:32:47.714Z,14.00
2023-01-05T13:35:34.816Z,14.00
2023-01-05T13:38:18.099Z,14.10
2023-01-05T13:41:33.197Z,14.20
2023-01-05T13:44:28.871Z,14.20
2023-01-05T13:47:27.046Z,14.20
2023-01-05T13:50:16.422Z,14.30
2023-01-05T13:53:14.520Z,14.30
2023-01-05T13:55:50.997Z,14.30
2023-01-05T13:58:39.814Z,14.40
2023-01-05T14:01:13.768Z,14.40
2023-01-05T14:06:27.820Z,14.30
2023-01-05T14:09:05.942Z,14.30
2023-01-05T14:11:36.409Z,14.30
2023-01-05T14:14:08.668Z,14.20
2023-01-05T14:16:36.144Z,14.20
2023-01-05T14:19:31.640Z,14.10
2023-01-05T14:22:19.298Z,14.10
2023-01-05T14:24:49.634Z,14.10
2023-01-05T14:27:23.800Z,14.10
2023-01-05T14:29:54.099Z,14.10
2023-01-05T14:32:41.121Z,14.10
2023-01-05T14:35:31.935Z,14.10
2023-01-05T14:38:23.695Z,14.20
2023-01-05T14:43:37.749Z,14.30
2023-01-05T14:46:18.453Z,14.30
2023-01-05T14:49:03.983Z,14.20
2023-01-05T14:51:38.202Z,14.20
2023-01-05T14:54:06.651Z,14.30
2023-01-05T14:56:36.885Z,14.30
2023-01-05T14:59:23.977Z,14.30
2023-01-05T15:02:00.631Z,14.30
2023-01-05T15:04:37.626Z,14.30
2023-01-05T15:07:18.450Z,14.20
2023-01-05T15:10:16.960Z,14.30
2023-01-05T15:12:53.169Z,14.20
2023-01-05T15:15:57.918Z,14.10
2023-01-05T15:18:25.129Z,14.20
2023-01-05T15:21:01.530Z,14.10
2023-01-05T15:26:30.325Z,14.10
2023-01-05T15:29:27.908Z,14.10
2023-01-05T15:32:12.809Z,14.10
2023-01-05T15:35:02.088Z,14.10
2023-01-05T15:37:52.485Z,14.00
2023-01-05T15:40:22.637Z,14.00
2023-01-05T15:42:56.371Z,14.10
2023-01-05T15:45:25.937Z,14.10
2023-01-05T15:47:54.516Z,14.10
2023-01-05T15:50:33.325Z,14.10
2023-01-05T15:53:02.142Z,14.10
2023-01-05T15:55:30.488Z,14.10
2023-01-05T15:58:06.425Z,14.10
2023-01-05T16:00:36.260Z,14.10
2023-01-05T16:03:22.769Z,14.20
2023-01-05T16:05:57.579Z,14.20
2023-01-05T16:08:25.191Z,14.20
2023-01-05T16:10:59.841Z,14.30
2023-01-05T16:13:37.586Z,14.30
2023-01-05T16:16:12.945Z,14.30
2023-01-05T16:18:48.568Z,14.30
2023-01-05T16:21:28.816Z,14.20
2023-01-05T16:23:58.847Z,14.30
2023-01-05T16:26:26.458Z,14.20
2023-01-05T16:28:53.806Z,14.10
2023-01-05T16:31:36.062Z,14.10
2023-01-05T16:34:29.640Z,14.10
2023-01-05T16:37:02.421Z,14.00
2023-01-05T16:39:37.324Z,14.00
2023-01-05T16:42:30.154Z,14.00
2023-01-05T16:44:59.191Z,13.90
2023-01-05T16:47:36.993Z,14.00
2023-01-05T16:50:31.087Z,14.00
2023-01-05T16:53:10.731Z,13.90
2023-01-05T16:55:38.800Z,13.90
2023-01-05T16:58:31.025Z,13.90
2023-01-05T17:01:26.463Z,14.00
2023-01-05T17:03:54.596Z,14.00
2023-01-05T17:06:28.962Z,13.90
2023-01-05T17:09:00.253Z,13.90
2023-01-05T17:11:36.796Z,13.90
2023-01-05T17:14:06.453Z,13.90
2023-01-05T17:16:33.880Z,13.80
2023-01-05T17:19:02.400Z,13.80
2023-01-05T17:21:33.109Z,13.80
2023-01-05T17:24:01.076Z,13.60
2023-01-05T17:26:34.095Z,13.60
2023-01-05T17:31:35.788Z,13.40
2023-01-05T17:34:03.529Z,13.30
2023-01-05T17:36:33.050Z,13.30
2023-01-05T17:39:00.819Z,13.20
2023-01-05T17:41:28.318Z,13.10
2023-01-05T17:43:55.646Z,13.00
2023-01-05T17:46:29.290Z,13.00
2023-01-05T17:48:59.084Z,13.00
2023-01-05T17:51:28.352Z,13.00
2023-01-05T17:53:59.761Z,12.90
2023-01-05T17:56:27.432Z,12.90
2023-01-05T17:58:54.693Z,12.90
2023-01-05T18:01:22.042Z,13.00
2023-01-05T18:03:49.350Z,13.00
2023-01-05T18:06:16.691Z,13.10
2023-01-05T18:08:44.201Z,13.20
2023-01-05T18:11:11.500Z,13.20
2023-01-05T18:16:19.910Z,13.20
2023-01-05T18:18:47.413Z,13.20
2023-01-05T18:21:14.726Z,13.20
2023-01-05T18:23:42.066Z,13.20
2023-01-05T18:26:10.494Z,13.20
2023-01-05T18:28:38.598Z,13.20
2023-01-05T18:31:14.112Z,13.20
2023-01-05T18:33:42.310Z,13.30
2023-01-05T18:36:13.988Z,13.30
2023-01-05T18:38:42.443Z,13.20
2023-01-05T18:41:10.289Z,13.20
2023-01-05T18:43:37.830Z,13.30
2023-01-05T18:46:05.543Z,13.30
2023-01-05T18:48:33.141Z,13.30
2023-01-05T18:51:00.484Z,13.20
2023-01-05T18:53:27.837Z,13.20
2023-01-05T18:55:55.086Z,13.20
2023-01-05T18:58:22.421Z,13.20
2023-01-05T19:00:49.818Z,13.20
2023-01-05T19:03:17.099Z,13.20
2023-01-05T19:05:44.845Z,13.30
2023-01-05T19:08:13.629Z,13.30
2023-01-05T19:10:41.339Z,13.30
2023-01-05T19:13:09.151Z,13.40
2023-01-05T19:15:38.097Z,13.40
2023-01-05T19:18:06.303Z,13.30
2023-01-05T19:20:33.567Z,13.20
2023-01-05T19:23:01.206Z,13.20
2023-01-05T19:25:29.631Z,13.20
2023-01-05T19:28:01.469Z,13.10
2023-01-05T19:30:30.402Z,13.00
2023-01-05T19:32:57.594Z,13.10
2023-01-05T19:35:24.848Z,13.10
2023-01-05T19:37:52.143Z,13.00
2023-01-05T19:40:19.475Z,13.10
2023-01-05T19:42:46.780Z,13.10
2023-01-05T19:45:14.256Z,13.10
2023-01-05T19:47:43.085Z,13.10
2023-01-05T19:50:11.954Z,13.10
2023-01-05T19:52:39.989Z,13.10
2023-01-05T19:55:07.732Z,13.10
2023-01-05T19:57:34.939Z,13.20
2023-01-05T20:00:02.363Z,13.20
2023-01-05T20:02:39.496Z,13.20
2023-01-05T20:05:07.275Z,13.20
2023-01-05T20:07:34.487Z,13.20
2023-01-05T20:10:01.720Z,13.20
2023-01-05T20:12:29.008Z,13.20
2023-01-05T20:14:56.540Z,13.20
2023-01-05T20:17:23.802Z,13.10
2023-01-05T20:19:51.124Z,13.10
2023-01-05T20:24:59.726Z,13.20
2023-01-05T20:27:26.989Z,13.20
2023-01-05T20:29:54.254Z,13.20
2023-01-05T20:35:05.057Z,13.10
2023-01-05T20:37:33.130Z,13.10
2023-01-05T20:40:02.159Z,13.10
2023-01-05T20:42:30.559Z,13.10
2023-01-05T20:44:57.929Z,13.10
2023-01-05T20:52:47.585Z,13.00
2023-01-05T20:55:17.870Z,13.00
2023-01-05T20:57:46.006Z,13.00
2023-01-05T21:00:15.758Z,13.00
2023-01-05T21:02:43.068Z,12.90
2023-01-05T21:05:11.920Z,12.90
2023-01-05T21:07:39.226Z,12.90
2023-01-05T21:10:06.862Z,12.80
2023-01-05T21:12:34.498Z,12.90
2023-01-05T21:15:01.723Z,12.90
2023-01-05T21:17:29.006Z,12.90
2023-01-05T21:19:57.919Z,12.90
2023-01-05T21:22:25.233Z,12.90
2023-01-05T21:24:52.485Z,12.90
2023-01-05T21:27:19.737Z,12.90
2023-01-05T21:29:46.945Z,12.90
2023-01-05T21:32:14.336Z,12.90
2023-01-05T21:40:04.591Z,12.80
2023-01-05T21:42:40.738Z,12.80
2023-01-05T21:45:10.564Z,12.80
2023-01-05T21:47:38.351Z,12.80
2023-01-05T21:53:06.874Z,12.70
2023-01-05T21:55:52.767Z,12.70
2023-01-05T21:58:20.083Z,12.70
2023-01-05T22:00:47.350Z,12.70
2023-01-05T22:03:14.693Z,12.60
2023-01-05T22:05:41.862Z,12.70
2023-01-05T22:08:09.205Z,12.70
2023-01-05T22:10:36.463Z,12.70
2023-01-05T22:13:06.287Z,12.70
2023-01-05T22:15:33.503Z,12.70
2023-01-05T22:18:00.891Z,12.70
2023-01-05T22:20:28.536Z,12.70
2023-01-05T22:22:55.894Z,12.60
2023-01-05T22:25:23.163Z,12.60
2023-01-05T22:27:50.412Z,12.50
2023-01-05T22:30:18.222Z,12.60
2023-01-05T22:32:45.531Z,12.50
2023-01-05T22:35:12.855Z,12.50
2023-01-05T22:37:40.233Z,12.50
2023-01-05T22:40:08.564Z,12.50
2023-01-05T22:42:35.883Z,12.50
2023-01-05T22:45:03.223Z,12.50
2023-01-05T22:47:31.098Z,12.50
2023-01-05T22:49:58.280Z,12.50
2023-01-05T22:52:25.626Z,12.50
2023-01-05T22:54:53.533Z,12.50
2023-01-05T22:57:20.884Z,12.50
2023-01-05T22:59:48.099Z,12.50
2023-01-05T23:02:15.687Z,12.50
2023-01-05T23:04:42.957Z,12.50
2023-01-05T23:07:10.332Z,12.60
2023-01-05T23:09:37.764Z,12.60
2023-01-05T23:12:05.290Z,12.60
2023-01-05T23:14:32.549Z,12.70
2023-01-05T23:16:59.878Z,12.60
2023-01-05T23:19:27.117Z,12.60
2023-01-05T23:21:54.448Z,12.60
2023-01-05T23:24:21.977Z,12.60
2023-01-05T23:26:49.233Z,12.60
2023-01-05T23:29:16.540Z,12.60
2023-01-05T23:31:43.855Z,12.60
2023-01-05T23:34:11.090Z,12.60
2023-01-05T23:36:38.482Z,12.60
2023-01-05T23:39:05.809Z,12.70
2023-01-05T23:41:33.244Z,12.60
2023-01-05T23:44:00.518Z,12.60
2023-01-05T23:46:28.114Z,12.60
2023-01-05T23:48:55.580Z,12.60
2023-01-05T23:51:23.071Z,12.50
2023-01-05T23:53:52.202Z,12.50
2023-01-05T23:56:25.664Z,12.50
2023-01-05T23:59:04.403Z,12.50
